Time;durP1;ratioP1;P1;durP2;ratioP2;P2;SDS_P1;SDS_P2;PMS_P1;PMS_P2;Temp;Humidity;BMP_temperature;BMP_pressure;BME280_temperature;BME280_humidity;BME280_pressure;Samples;Min_cycle;Max_cycle;Signal;HPM_P1;HPM_P2
2022/08/31 00:05:40;;;;;;;21.00;13.85;;;;;;;30.71;74.54;98023.69;4913154;29;20085;-68
2022/08/31 00:08:30;;;;;;;18.95;13.35;;;;;;;30.63;74.62;98029.06;4912601;29;20048;-68
2022/08/31 00:11:13;;;;;;;26.17;15.38;;;;;;;30.64;74.80;98025.13;4912679;29;20821;-68
2022/08/31 00:14:06;;;;;;;27.30;14.55;;;;;;;30.62;75.23;98024.69;4913038;29;20048;-68
2022/08/31 00:16:55;;;;;;;23.10;14.88;;;;;;;30.65;75.11;98025.94;4912766;29;20055;-68
2022/08/31 00:19:44;;;;;;;19.77;14.00;;;;;;;30.67;74.80;98031.09;4912306;29;20103;-69
2022/08/31 00:22:26;;;;;;;24.92;15.32;;;;;;;30.70;75.08;98024.84;4901247;29;20078;-68
2022/08/31 00:25:16;;;;;;;28.45;15.32;;;;;;;30.60;75.03;98018.72;4876793;29;20496;-69
2022/08/31 00:27:58;;;;;;;24.08;15.38;;;;;;;30.71;74.65;98026.47;4878464;29;20120;-69
2022/08/31 00:30:48;;;;;;;29.48;16.00;;;;;;;30.63;74.94;98031.84;4893680;29;20064;-69
2022/08/31 00:33:30;;;;;;;22.65;14.70;;;;;;;30.67;74.85;98031.09;4882918;29;20127;-69
2022/08/31 00:36:20;;;;;;;23.65;15.60;;;;;;;30.59;75.28;98030.97;4893739;29;20048;-69
2022/08/31 00:39:04;;;;;;;;;;;;;;;30.67;74.84;98039.41;4896002;29;20465;-69
2022/08/31 00:41:53;;;;;;;23.60;16.60;;;;;;;30.64;74.89;98041.75;4876841;29;19934;-69
2022/08/31 00:44:35;;;;;;;30.30;16.95;;;;;;;30.61;75.23;98038.88;4862369;29;20063;-69
2022/08/31 00:47:24;;;;;;;25.48;16.13;;;;;;;30.57;75.10;98049.91;4877179;29;20468;-69
2022/08/31 00:50:09;;;;;;;25.02;16.83;;;;;;;30.59;75.18;98041.22;4877175;29;20061;-69
2022/08/31 00:53:05;;;;;;;24.65;16.35;;;;;;;30.57;75.59;98047.16;4874972;29;20052;-69
2022/08/31 00:55:47;;;;;;;23.98;17.05;;;;;;;30.64;74.73;98052.03;4857935;29;20365;-69
2022/08/31 00:58:37;;;;;;;21.80;16.83;;;;;;;30.66;75.03;98044.16;4873488;29;20520;-69
2022/08/31 01:01:20;;;;;;;28.67;17.33;;;;;;;30.70;74.68;98055.31;4887059;29;20056;-69
2022/08/31 01:04:10;;;;;;;25.60;17.38;;;;;;;30.69;74.89;98060.06;4875451;29;20052;-69
2022/08/31 01:06:52;;;;;;;27.27;17.13;;;;;;;30.78;74.58;98055.09;4874656;29;20061;-69
2022/08/31 01:09:46;;;;;;;29.00;17.90;;;;;;;30.79;74.53;98048.38;4878639;29;20057;-69
2022/08/31 01:12:43;;;;;;;26.98;16.70;;;;;;;30.81;74.44;98056.34;4876485;29;20045;-69
2022/08/31 01:15:27;;;;;;;31.65;18.15;;;;;;;30.84;74.10;98061.16;4878659;29;20057;-70
2022/08/31 01:18:17;;;;;;;22.95;16.77;;;;;;;30.89;74.04;98066.38;4874825;29;20060;-68
2022/08/31 01:21:18;;;;;;;28.65;18.83;;;;;;;30.89;74.26;98069.16;4874529;29;20132;-68
2022/08/31 01:23:58;;;;;;;23.60;17.65;;;;;;;30.92;74.01;98062.94;4893218;29;20051;-69
2022/08/31 01:26:53;;;;;;;29.35;18.88;;;;;;;30.94;74.48;98068.09;4893194;29;20063;-69
2022/08/31 01:29:31;;;;;;;26.85;18.35;;;;;;;31.00;74.16;98069.41;4861055;29;20052;-69
2022/08/31 01:32:20;;;;;;;31.27;18.58;;;;;;;31.01;74.74;98069.06;4892715;29;20056;-69
2022/08/31 01:35:10;;;;;;;26.70;17.90;;;;;;;31.02;74.60;98072.63;4874366;29;20059;-68
2022/08/31 01:37:53;;;;;;;28.27;17.23;;;;;;;31.10;74.55;98068.81;4875730;29;20147;-69
2022/08/31 01:40:52;;;;;;;26.58;17.17;;;;;;;31.20;74.03;98067.41;4891592;29;20761;-69
2022/08/31 01:43:48;;;;;;;26.95;18.15;;;;;;;31.28;74.10;98069.16;4891521;29;20131;-69
2022/08/31 01:46:24;;;;;;;30.30;19.10;;;;;;;31.25;74.50;98074.63;4891201;29;20052;-70
2022/08/31 01:49:15;;;;;;;35.70;19.52;;;;;;;31.32;73.79;98074.75;4891037;29;20096;-68
2022/08/31 01:51:58;;;;;;;30.88;19.77;;;;;;;31.29;74.51;98076.28;4892682;29;20044;-69
2022/08/31 01:54:47;;;;;;;32.88;20.80;;;;;;;31.35;73.85;98072.03;4891050;29;20076;-69
2022/08/31 01:57:29;;;;;;;30.83;20.83;;;;;;;31.39;73.54;98081.25;4866721;29;20116;-69
2022/08/31 02:00:38;;;;;;;38.10;22.15;;;;;;;31.47;73.22;98076.66;4856849;29;20052;-70
2022/08/31 02:03:21;;;;;;;42.72;21.80;;;;;;;31.58;72.70;98087.94;4882179;29;20048;-69
2022/08/31 02:06:12;;;;;;;40.60;23.70;;;;;;;31.63;72.94;98092.38;4862458;29;20052;-69
2022/08/31 02:09:02;;;;;;;39.55;23.83;;;;;;;31.68;72.45;98097.63;4859687;29;20045;-69
2022/08/31 02:11:58;;;;;;;46.55;26.42;;;;;;;31.94;73.17;98094.88;4874783;29;20498;-69
2022/08/31 02:14:46;;;;;;;52.60;29.92;;;;;;;32.08;71.90;98104.66;4875677;28;20138;-69
2022/08/31 02:17:41;;;;;;;43.63;30.40;;;;;;;32.26;70.10;98104.94;4853466;29;20050;-68
2022/08/31 02:20:32;;;;;;;48.97;28.63;;;;;;;32.52;69.58;98112.44;4852134;29;20049;-69
2022/08/31 02:23:23;;;;;;;45.58;29.17;;;;;;;32.67;69.36;98113.47;4871223;29;20156;-69
2022/08/31 02:26:05;;;;;;;51.03;29.73;;;;;;;32.69;68.61;98109.16;4877369;29;20056;-69
2022/08/31 02:28:54;;;;;;;43.75;29.05;;;;;;;32.90;68.05;98110.59;4855051;29;20057;-70
2022/08/31 02:31:36;;;;;;;49.05;28.92;;;;;;;32.94;67.79;98117.84;4887921;29;20048;-70
2022/08/31 02:34:26;;;;;;;46.38;28.95;;;;;;;32.94;68.15;98108.66;4890324;29;20148;-70
2022/08/31 02:37:16;;;;;;;58.25;28.98;;;;;;;32.92;68.41;98116.59;4890306;29;20131;-69
2022/08/31 02:40:06;;;;;;;56.17;28.52;;;;;;;32.72;68.54;98110.38;4890468;29;20045;-70
2022/08/31 02:42:56;;;;;;;53.15;30.70;;;;;;;32.77;68.02;98113.63;4889931;29;20121;-69
2022/08/31 02:45:45;;;;;;;48.53;30.30;;;;;;;32.79;67.86;98118.81;4890748;29;20060;-69
2022/08/31 02:48:39;;;;;;;45.42;29.20;;;;;;;32.89;68.08;98115.38;4890192;29;20556;-69
2022/08/31 02:51:28;;;;;;;50.42;28.63;;;;;;;32.92;68.78;98128.53;4870501;29;20144;-69
2022/08/31 02:54:24;;;;;;;45.63;28.15;;;;;;;32.92;67.71;98122.97;4871579;29;20063;-69
2022/08/31 02:57:01;;;;;;;41.25;28.48;;;;;;;33.01;66.63;98127.44;4872213;29;20080;-70
2022/08/31 02:59:49;;;;;;;48.08;29.25;;;;;;;33.03;66.64;98122.28;4883203;29;20052;-69
2022/08/31 03:02:33;;;;;;;44.50;28.05;;;;;;;33.18;66.87;98126.88;4878751;29;20059;-69
2022/08/31 03:05:22;;;;;;;43.42;27.27;;;;;;;33.27;65.94;98124.59;4872371;29;20101;-69
2022/08/31 03:08:04;;;;;;;44.58;26.00;;;;;;;33.30;66.28;98134.94;4872068;29;20489;-68
2022/08/31 03:10:56;;;;;;;40.05;24.98;;;;;;;33.29;64.92;98138.94;4871640;29;20052;-68
2022/08/31 03:13:46;;;;;;;44.13;24.70;;;;;;;33.51;64.27;98141.94;4855879;29;20040;-70
2022/08/31 03:16:46;;;;;;;40.20;24.90;;;;;;;33.51;62.97;98139.16;4860910;29;20044;-69
2022/08/31 03:19:41;;;;;;;41.55;23.60;;;;;;;33.69;64.02;98136.59;4873836;29;20041;-67
2022/08/31 03:22:37;;;;;;;35.80;22.08;;;;;;;33.71;64.39;98143.38;4873659;29;20123;-69
2022/08/31 03:25:16;;;;;;;40.50;22.45;;;;;;;33.78;64.44;98145.41;4873377;29;20064;-68
2022/08/31 03:28:06;;;;;;;49.45;21.13;;;;;;;33.93;64.96;98143.56;4874276;29;20073;-68
2022/08/31 03:31:03;;;;;;;33.58;20.77;;;;;;;34.04;63.55;98138.88;4858433;29;20048;-68
2022/08/31 03:33:53;;;;;;;35.97;20.40;;;;;;;34.12;62.70;98146.09;4869263;29;20107;-68
2022/08/31 03:36:35;;;;;;;27.90;18.98;;;;;;;34.25;62.75;98143.06;4859385;29;20064;-68
2022/08/31 03:39:31;;;;;;;26.27;18.10;;;;;;;34.39;61.58;98145.94;4859945;29;20056;-68
2022/08/31 03:42:20;;;;;;;31.67;18.33;;;;;;;34.38;61.24;98149.94;4873549;29;20056;-68
2022/08/31 03:45:17;;;;;;;33.05;17.40;;;;;;;34.32;61.17;98151.50;4872894;29;20048;-68
2022/08/31 03:48:00;;;;;;;31.73;17.67;;;;;;;34.28;60.25;98154.25;4872993;29;20071;-68
2022/08/31 03:50:53;;;;;;;32.42;18.65;;;;;;;34.33;60.61;98158.66;4874460;29;20060;-69
2022/08/31 03:53:39;;;;;;;33.88;17.92;;;;;;;34.29;61.61;98157.81;4876586;29;20059;-70
2022/08/31 03:56:28;;;;;;;37.22;18.00;;;;;;;34.36;59.91;98157.06;4880726;29;20202;-70
2022/08/31 03:59:13;;;;;;;35.33;15.23;;;;;;;34.46;58.91;98157.16;4875612;29;20045;-69
2022/08/31 04:02:44;;;;;;;33.78;16.50;;;;;;;34.37;59.23;98162.25;4849191;29;20046;-69
2022/08/31 04:05:40;;;;;;;30.70;16.88;;;;;;;34.54;59.23;98160.00;4850011;29;20069;-69
2022/08/31 04:08:35;;;;;;;32.47;13.05;;;;;;;34.68;58.31;98157.31;4885541;29;20048;-69
2022/08/31 04:11:40;;;;;;;30.05;13.70;;;;;;;34.76;57.64;98161.75;4890570;29;20116;-69
2022/08/31 04:14:50;;;;;;;23.30;14.30;;;;;;;34.85;58.64;98170.56;4889100;29;20112;-69
2022/08/31 04:18:04;;;;;;;33.60;16.13;;;;;;;34.94;58.10;98172.19;4901909;28;20051;-68
2022/08/31 04:21:01;;;;;;;25.30;13.93;;;;;;;35.07;57.86;98167.88;4857484;29;20068;-67
2022/08/31 04:23:39;;;;;;;23.48;13.93;;;;;;;35.04;56.91;98177.03;4877871;29;20063;-68
2022/08/31 04:26:31;;;;;;;28.40;13.82;;;;;;;35.32;55.76;98176.38;4873129;29;20044;-69
2022/08/31 04:29:20;;;;;;;22.88;12.23;;;;;;;35.45;54.54;98174.84;4873040;29;20476;-69
2022/08/31 04:32:02;;;;;;;23.98;10.68;;;;;;;35.46;54.11;98175.63;4873822;29;20048;-69
2022/08/31 04:34:51;;;;;;;22.83;11.15;;;;;;;35.91;54.59;98178.94;4859123;29;20053;-68
2022/08/31 04:37:40;;;;;;;22.73;12.35;;;;;;;36.13;53.53;98171.38;4872952;29;20134;-68
2022/08/31 04:40:30;;;;;;;27.50;12.80;;;;;;;36.49;53.32;98168.59;4876743;29;20060;-68
2022/08/31 04:43:20;;;;;;;36.60;14.73;;;;;;;36.91;52.33;98174.53;4893231;29;20477;-68
2022/08/31 04:46:04;;;;;;;31.52;13.05;;;;;;;37.00;52.65;98174.91;4897412;29;20067;-68
2022/08/31 04:48:59;;;;;;;32.42;13.90;;;;;;;37.31;52.20;98175.22;4895683;29;20059;-69
2022/08/31 04:51:37;;;;;;;23.80;13.43;;;;;;;37.47;51.10;98163.53;4879821;29;20120;-68
2022/08/31 04:54:32;;;;;;;37.65;17.73;;;;;;;37.58;49.93;98176.25;4875608;29;20707;-70
2022/08/31 04:57:07;;;;;;;29.85;17.08;;;;;;;37.66;51.11;98165.06;4876636;29;20058;-68
2022/08/31 05:00:00;;;;;;;25.17;16.48;;;;;;;37.95;49.12;98172.06;4879357;29;20044;-68
2022/08/31 05:03:09;;;;;;;34.03;16.65;;;;;;;37.95;49.52;98166.47;4898322;29;20066;-68
2022/08/31 05:05:52;;;;;;;31.85;16.35;;;;;;;38.21;49.80;98169.09;4880475;29;20049;-68
2022/08/31 05:08:41;;;;;;;32.00;16.15;;;;;;;38.20;50.69;98165.50;4892291;29;20048;-68
2022/08/31 05:11:24;;;;;;;24.75;14.57;;;;;;;38.21;48.29;98171.91;4872946;29;20047;-68
2022/08/31 05:14:14;;;;;;;29.92;15.48;;;;;;;38.00;48.90;98171.63;4899115;29;20052;-69
2022/08/31 05:17:06;;;;;;;24.73;14.73;;;;;;;38.34;48.91;98170.97;4875995;29;20067;-68
2022/08/31 05:19:57;;;;;;;21.38;13.85;;;;;;;38.32;48.49;98161.41;4877338;28;20053;-67
2022/08/31 05:22:39;;;;;;;28.38;14.18;;;;;;;37.88;49.17;98154.53;4864253;29;20113;-68
2022/08/31 05:25:28;;;;;;;24.52;12.05;;;;;;;38.25;47.14;98159.44;4878552;29;20576;-69
2022/08/31 05:28:10;;;;;;;20.80;10.57;;;;;;;38.43;47.18;98150.06;4879316;29;20320;-69
2022/08/31 05:31:00;;;;;;;20.95;10.57;;;;;;;38.21;47.62;98158.69;4883149;29;20049;-69
2022/08/31 05:33:51;;;;;;;16.02;9.10;;;;;;;38.57;45.90;98147.94;4863703;29;21366;-70
2022/08/31 05:36:44;;;;;;;18.17;8.55;;;;;;;38.46;43.37;98143.63;4879614;29;20104;-69
2022/08/31 05:39:26;;;;;;;18.05;7.93;;;;;;;38.41;44.35;98142.09;4874799;29;20203;-68
2022/08/31 05:42:18;;;;;;;16.25;7.78;;;;;;;38.87;44.74;98148.47;4874564;29;20089;-68
2022/08/31 05:45:01;;;;;;;13.38;8.75;;;;;;;38.74;44.79;98136.97;4870765;29;20048;-68
2022/08/31 05:47:51;;;;;;;18.05;9.15;;;;;;;38.75;46.21;98136.56;4873459;29;20454;-68
2022/08/31 05:50:33;;;;;;;17.00;9.70;;;;;;;38.59;46.42;98136.31;4890972;29;20119;-68
2022/08/31 05:53:22;;;;;;;15.40;8.65;;;;;;;38.63;46.42;98142.69;4867845;29;20048;-68
2022/08/31 05:56:09;;;;;;;19.27;9.57;;;;;;;38.42;45.40;98131.69;4873082;29;20049;-68
2022/08/31 05:59:02;;;;;;;24.83;10.95;;;;;;;38.48;44.91;98132.81;4870190;29;20104;-69
2022/08/31 06:01:51;;;;;;;22.60;11.00;;;;;;;38.45;45.65;98130.84;4876436;29;20056;-69
2022/08/31 06:04:36;;;;;;;25.15;8.48;;;;;;;38.58;46.13;98126.31;4872461;29;20087;-69
2022/08/31 06:07:33;;;;;;;18.55;8.63;;;;;;;38.51;45.77;98129.19;4872567;29;20366;-70
2022/08/31 06:10:13;;;;;;;22.10;8.98;;;;;;;38.73;44.74;98130.56;4872314;29;20167;-69
2022/08/31 06:13:04;;;;;;;21.17;9.32;;;;;;;38.68;44.54;98122.63;4853966;29;20415;-67
2022/08/31 06:15:47;;;;;;;25.13;9.23;;;;;;;38.18;44.96;98128.69;4852361;29;20080;-68
2022/08/31 06:18:37;;;;;;;17.85;8.40;;;;;;;38.39;46.47;98117.28;4863513;29;20121;-69
2022/08/31 06:21:32;;;;;;;26.05;8.90;;;;;;;38.44;48.21;98115.22;4872470;29;20071;-69
2022/08/31 06:24:39;;;;;;;24.35;9.15;;;;;;;38.34;47.67;98108.53;4873191;29;20056;-71
2022/08/31 06:27:28;;;;;;;20.27;8.27;;;;;;;38.18;44.90;98101.47;4860392;29;20385;-68
2022/08/31 06:30:20;;;;;;;22.23;7.97;;;;;;;38.68;48.25;98107.81;4872692;29;20405;-68
2022/08/31 06:33:03;;;;;;;17.58;8.57;;;;;;;38.35;46.12;98110.91;4886892;29;20127;-69
2022/08/31 06:36:04;;;;;;;18.92;8.52;;;;;;;38.53;45.85;98105.16;4869410;29;20115;-68
2022/08/31 06:39:02;;;;;;;18.27;8.40;;;;;;;37.99;46.61;98105.59;4855788;29;20131;-71
2022/08/31 06:41:57;;;;;;;18.80;8.00;;;;;;;37.57;47.28;98101.91;4872122;29;20049;-70
2022/08/31 06:44:57;;;;;;;26.15;8.70;;;;;;;37.55;50.81;98093.13;4873277;29;20132;-70
2022/08/31 06:47:59;;;;;;;16.48;8.90;;;;;;;38.24;48.25;98095.41;4872159;29;20529;-71
2022/08/31 06:50:55;;;;;;;17.85;8.35;;;;;;;37.76;46.36;98092.19;4856362;29;20486;-71
2022/08/31 06:53:47;;;;;;;16.67;9.18;;;;;;;37.62;47.93;98092.28;4871615;29;20049;-70
2022/08/31 06:56:57;;;;;;;17.45;8.43;;;;;;;37.30;49.06;98084.06;4836161;29;20536;-70
2022/08/31 07:00:05;;;;;;;25.15;8.35;;;;;;;36.96;49.98;98087.44;4870875;29;20040;-70
2022/08/31 07:03:31;;;;;;;18.42;8.27;;;;;;;36.60;50.42;98085.53;4875323;29;20060;-70
2022/08/31 07:06:20;;;;;;;18.83;8.80;;;;;;;37.02;50.86;98089.38;4888998;29;20044;-70
2022/08/31 07:09:12;;;;;;;24.65;8.27;;;;;;;37.13;49.85;98080.13;4893804;29;20048;-69
2022/08/31 07:11:56;;;;;;;20.13;8.02;;;;;;;37.26;51.43;98080.50;4875342;29;20144;-70
2022/08/31 07:14:51;;;;;;;15.05;7.30;;;;;;;37.81;50.04;98068.53;4878104;29;20056;-70
2022/08/31 07:17:28;;;;;;;17.20;7.72;;;;;;;37.92;47.90;98071.25;4879475;29;20054;-70
2022/08/31 07:20:18;;;;;;;14.10;7.18;;;;;;;38.24;47.90;98071.00;4875509;29;20067;-69
2022/08/31 07:23:06;;;;;;;17.92;6.95;;;;;;;38.35;49.20;98062.44;4865210;29;20079;-69
2022/08/31 07:26:12;;;;;;;22.15;7.20;;;;;;;38.43;48.17;98060.38;4869530;29;20254;-69
2022/08/31 07:28:55;;;;;;;14.57;6.53;;;;;;;38.51;46.61;98050.69;4886977;29;20430;-69
2022/08/31 07:31:45;;;;;;;16.52;6.82;;;;;;;38.70;46.17;98064.09;4886492;29;20112;-70
2022/08/31 07:34:37;;;;;;;16.20;8.80;;;;;;;38.36;46.64;98052.84;4880255;29;20093;-69
2022/08/31 07:43:48;;;;;;;17.98;6.72;;;;;;;38.12;47.11;98055.50;4883858;29;20056;-68
2022/08/31 07:46:37;;;;;;;19.30;5.63;;;;;;;38.30;47.57;98043.31;4884807;29;20143;-69
2022/08/31 07:49:35;;;;;;;24.33;6.78;;;;;;;38.37;46.56;98029.19;4885435;29;20108;-69
2022/08/31 07:52:32;;;;;;;18.17;6.13;;;;;;;38.05;45.47;98035.91;4873882;29;20373;-69
2022/08/31 07:55:40;;;;;;;13.35;6.18;;;;;;;37.96;47.81;98022.38;4847246;29;20131;-68
2022/08/31 07:58:39;;;;;;;13.93;7.15;;;;;;;37.81;47.33;98021.72;4878553;29;20161;-69
2022/08/31 08:01:31;;;;;;;17.13;7.28;;;;;;;38.24;47.30;98025.38;4863650;29;20057;-69
2022/08/31 08:04:23;;;;;;;14.30;5.75;;;;;;;38.44;45.69;98017.13;4865474;29;20140;-70
2022/08/31 08:07:32;;;;;;;8.95;5.60;;;;;;;38.31;46.93;98014.06;4869359;29;20500;-69
2022/08/31 08:10:26;;;;;;;14.40;5.88;;;;;;;38.43;47.91;98012.72;4878051;29;20053;-70
2022/08/31 08:13:34;;;;;;;16.70;7.10;;;;;;;37.92;47.29;98015.25;4881100;29;20067;-69
2022/08/31 08:16:26;;;;;;;15.05;6.40;;;;;;;38.11;47.61;98017.47;4869774;29;20048;-69
2022/08/31 08:19:41;;;;;;;18.88;6.07;;;;;;;38.76;47.11;98011.13;4878821;29;20226;-69
2022/08/31 08:22:31;;;;;;;11.73;5.90;;;;;;;38.76;46.14;98006.31;4865486;29;20412;-69
2022/08/31 08:25:44;;;;;;;19.80;6.53;;;;;;;38.34;47.26;98000.00;4903682;29;20131;-70
2022/08/31 08:28:55;;;;;;;19.00;6.55;;;;;;;38.14;45.27;97999.03;4885739;29;20124;-69
2022/08/31 08:31:37;;;;;;;17.92;7.30;;;;;;;38.60;46.69;97994.13;4890161;29;20075;-69
2022/08/31 08:34:33;;;;;;;17.92;5.57;;;;;;;38.54;45.45;97988.19;4879398;29;20048;-69
2022/08/31 08:37:13;;;;;;;21.00;6.28;;;;;;;38.61;44.52;97988.09;4870581;29;20045;-70
2022/08/31 08:40:41;;;;;;;14.25;5.68;;;;;;;38.64;46.25;97987.25;4871155;29;20049;-70
2022/08/31 08:43:28;;;;;;;14.95;6.50;;;;;;;38.43;46.63;97977.09;4870371;29;20659;-70
2022/08/31 08:46:27;;;;;;;14.63;5.57;;;;;;;38.16;45.24;97968.56;4871381;29;20434;-69
2022/08/31 08:49:34;;;;;;;17.17;5.75;;;;;;;38.46;44.43;97969.84;4871000;29;20052;-69
2022/08/31 08:52:36;;;;;;;15.48;6.50;;;;;;;38.20;45.23;97969.34;4897204;28;20064;-69
2022/08/31 08:55:16;;;;;;;13.50;6.07;;;;;;;37.53;48.49;97958.38;4890308;29;20809;-69
2022/08/31 08:58:16;;;;;;;17.60;7.30;;;;;;;37.31;49.21;97951.34;4889720;29;20056;-68
2022/08/31 09:00:55;;;;;;;15.48;5.85;;;;;;;37.74;45.79;97953.78;4872444;29;20053;-70
2022/08/31 09:04:20;;;;;;;14.50;5.82;;;;;;;37.90;46.86;97945.63;4889074;29;20052;-69
2022/08/31 09:07:29;;;;;;;13.00;5.72;;;;;;;37.88;46.92;97942.44;4780085;29;20054;-68
2022/08/31 09:10:31;;;;;;;11.55;5.93;;;;;;;37.95;46.55;97947.97;4873441;29;20060;-68
2022/08/31 09:14:17;;;;;;;24.63;14.50;;;;;;;37.75;46.20;97944.19;4872237;29;20064;-68
2022/08/31 09:17:23;;;;;;;21.50;12.82;;;;;;;37.36;47.90;97939.72;4842581;29;20318;-69
2022/08/31 09:20:15;;;;;;;26.52;16.05;;;;;;;36.66;48.76;97926.59;4891120;29;20074;-70
2022/08/31 09:23:10;;;;;;;22.92;15.90;;;;;;;36.98;49.11;97922.81;4875650;29;20052;-68
2022/08/31 09:26:05;;;;;;;26.50;17.52;;;;;;;36.82;50.64;97934.47;4870002;29;20645;-69
2022/08/31 09:29:27;;;;;;;21.45;15.00;;;;;;;36.71;50.64;97928.97;4870433;29;20057;-69
2022/08/31 09:32:24;;;;;;;25.80;15.95;;;;;;;36.62;49.80;97923.00;4871092;29;20055;-69
2022/08/31 09:35:39;;;;;;;24.67;16.48;;;;;;;36.21;50.64;97918.00;4870967;29;20048;-69
2022/08/31 09:38:35;;;;;;;25.33;15.40;;;;;;;36.66;50.59;97914.63;4870317;29;20053;-70
2022/08/31 09:41:41;;;;;;;26.75;15.85;;;;;;;36.34;51.72;97926.72;4873516;29;20603;-69
2022/08/31 09:44:40;;;;;;;30.35;17.02;;;;;;;36.09;54.36;97922.00;4872510;29;20621;-69
2022/08/31 09:47:54;;;;;;;30.38;16.05;;;;;;;36.29;52.38;97913.16;4873686;29;20132;-69
2022/08/31 09:50:44;;;;;;;30.45;16.55;;;;;;;36.17;52.11;97906.84;4874362;29;20060;-70
2022/08/31 09:57:06;;;;;;;31.02;16.42;;;;;;;36.16;51.49;97904.44;4888642;29;20052;-69
2022/08/31 09:59:55;;;;;;;22.58;15.05;;;;;;;36.01;52.02;97892.50;4874005;29;20418;-70
2022/08/31 10:02:45;;;;;;;26.42;16.45;;;;;;;35.91;52.90;97894.13;4873762;29;20064;-67
2022/08/31 10:05:44;;;;;;;25.08;16.20;;;;;;;36.15;51.89;97894.44;4872715;29;20064;-69
2022/08/31 10:08:52;;;;;;;32.05;16.17;;;;;;;35.89;52.01;97884.59;4873843;29;20139;-70
2022/08/31 10:11:46;;;;;;;21.30;14.52;;;;;;;35.73;51.51;97885.81;4873270;29;20049;-68
2022/08/31 10:14:40;;;;;;;28.77;16.08;;;;;;;36.00;53.04;97885.31;4872837;29;20129;-70
2022/08/31 10:17:50;;;;;;;29.33;15.50;;;;;;;35.79;51.19;97870.25;4878395;29;20049;-70
2022/08/31 10:20:31;;;;;;;19.38;14.15;;;;;;;36.11;51.74;97874.91;4873621;29;20063;-70
2022/08/31 10:23:53;;;;;;;24.75;14.32;;;;;;;36.28;52.94;97867.69;4858687;29;20060;-68
2022/08/31 10:27:00;;;;;;;23.63;14.40;;;;;;;36.27;52.53;97854.94;4882587;29;20068;-69
2022/08/31 10:29:54;;;;;;;26.10;14.23;;;;;;;35.93;52.15;97855.44;4874234;29;20085;-68
2022/08/31 10:33:03;;;;;;;23.52;15.10;;;;;;;35.94;51.71;97848.63;4872322;29;20083;-68
2022/08/31 10:36:04;;;;;;;24.88;15.77;;;;;;;35.94;51.46;97845.84;4854328;29;20253;-70
2022/08/31 10:38:48;;;;;;;22.92;14.52;;;;;;;36.03;51.78;97839.84;4869145;29;20041;-69
2022/08/31 10:41:43;;;;;;;21.33;12.85;;;;;;;36.22;52.09;97836.56;4869954;29;20178;-70
2022/08/31 10:44:50;;;;;;;22.83;13.43;;;;;;;36.20;51.00;97832.59;4854738;29;20709;-69
2022/08/31 10:47:47;;;;;;;20.40;13.45;;;;;;;36.32;52.58;97825.75;4867743;29;20160;-70
2022/08/31 10:50:43;;;;;;;21.58;13.77;;;;;;;36.25;53.11;97832.19;4868146;29;20116;-70
2022/08/31 10:53:51;;;;;;;24.42;13.25;;;;;;;36.15;52.23;97830.19;4867800;29;20068;-70
2022/08/31 10:56:40;;;;;;;19.08;13.40;;;;;;;36.17;52.67;97825.03;4867077;29;20062;-69
2022/08/31 11:00:00;;;;;;;23.05;13.10;;;;;;;36.06;52.18;97822.28;4851644;29;20057;-68
2022/08/31 11:03:15;;;;;;;21.10;13.60;;;;;;;36.15;51.94;97830.97;4867829;29;20175;-69
2022/08/31 11:06:27;;;;;;;19.20;13.90;;;;;;;36.22;52.03;97824.59;4872829;29;20251;-69
2022/08/31 11:09:24;;;;;;;27.55;14.45;;;;;;;36.12;53.20;97817.06;4870087;29;20053;-70
2022/08/31 11:12:10;;;;;;;22.02;14.23;;;;;;;36.02;52.43;97819.50;4872927;29;20064;-69
2022/08/31 11:15:11;;;;;;;21.10;14.20;;;;;;;35.94;50.97;97820.72;4872829;29;20240;-69
2022/08/31 11:18:12;;;;;;;19.60;14.20;;;;;;;35.95;52.37;97813.94;4887675;29;20056;-69
2022/08/31 11:21:26;;;;;;;20.10;13.75;;;;;;;35.81;51.46;97805.63;4874632;29;20056;-70
2022/08/31 11:24:27;;;;;;;23.85;14.40;;;;;;;36.23;51.63;97799.06;4852857;29;20216;-67
2022/08/31 11:27:32;;;;;;;19.48;13.00;;;;;;;36.03;53.12;97795.94;4854490;29;20377;-70
2022/08/31 11:30:36;;;;;;;20.90;13.60;;;;;;;35.85;53.01;97796.03;4872044;29;20076;-71
2022/08/31 11:33:30;;;;;;;17.40;11.20;;;;;;;35.93;50.69;97791.22;4872230;29;20064;-70
2022/08/31 11:36:58;;;;;;;21.85;11.27;;;;;;;35.75;49.06;97784.91;4872837;29;20404;-70
2022/08/31 11:39:44;;;;;;;14.27;6.85;;;;;;;35.80;48.84;97793.66;4872250;29;20076;-71
2022/08/31 11:42:36;;;;;;;11.52;5.82;;;;;;;35.84;49.56;97791.66;4872235;29;20049;-71
2022/08/31 11:45:36;;;;;;;10.90;5.47;;;;;;;35.99;48.11;97786.78;4871161;29;20284;-73
2022/08/31 11:48:56;;;;;;;11.55;5.90;;;;;;;36.08;47.14;97786.34;4875691;29;20061;-72
2022/08/31 11:51:41;;;;;;;14.40;5.45;;;;;;;35.96;45.06;97784.00;4876050;29;20671;-72
2022/08/31 11:54:40;;;;;;;12.95;5.38;;;;;;;35.90;47.64;97783.63;4882170;29;20429;-72
2022/08/31 11:58:01;;;;;;;14.90;5.65;;;;;;;35.97;46.26;97778.03;4894337;29;20203;-73
2022/08/31 12:00:56;;;;;;;12.40;5.22;;;;;;;36.07;48.58;97770.78;4892451;29;20489;-74
2022/08/31 12:04:02;;;;;;;11.83;5.40;;;;;;;35.84;47.04;97772.09;4894518;29;20044;-75
2022/08/31 12:06:46;;;;;;;10.98;5.60;;;;;;;35.90;45.91;97774.47;4900210;29;20056;-75
2022/08/31 12:09:45;;;;;;;10.35;5.13;;;;;;;35.79;49.21;97778.13;4887512;29;20053;-74
2022/08/31 12:13:18;;;;;;;12.45;5.80;;;;;;;35.63;49.15;97777.75;4903262;29;20063;-73
2022/08/31 12:16:26;;;;;;;13.27;8.90;;;;;;;35.76;51.35;97778.94;4904391;29;20147;-74
2022/08/31 12:26:58;;;;;;;23.90;15.85;;;;;;;35.71;56.75;97781.34;4895221;29;20070;-71
2022/08/31 12:29:57;;;;;;;19.40;15.20;;;;;;;35.52;58.66;97780.56;4873242;29;20057;-72
2022/08/31 12:32:57;;;;;;;23.80;16.42;;;;;;;35.41;57.54;97788.22;4892052;29;20052;-72
2022/08/31 12:35:48;;;;;;;22.15;17.08;;;;;;;35.33;58.47;97776.25;4896496;29;20056;-71
2022/08/31 12:38:30;;;;;;;22.77;15.93;;;;;;;35.55;58.93;97773.41;4913193;29;20120;-72
2022/08/31 12:41:20;;;;;;;21.40;16.83;;;;;;;35.38;58.45;97767.47;4898263;29;20090;-72
2022/08/31 12:44:05;;;;;;;22.90;17.23;;;;;;;35.29;59.96;97775.47;4902975;29;20060;-72
2022/08/31 12:47:11;;;;;;;25.30;17.25;;;;;;;35.22;59.00;97762.34;4896706;29;20068;-72
2022/08/31 12:50:11;;;;;;;21.95;16.70;;;;;;;35.19;59.73;97765.13;4894573;29;20061;-73
2022/08/31 12:53:18;;;;;;;23.83;16.73;;;;;;;35.24;60.13;97759.16;4896833;29;20074;-70
2022/08/31 12:56:21;;;;;;;29.40;17.92;;;;;;;35.12;59.31;97765.13;4903267;29;20050;-74
2022/08/31 12:59:19;;;;;;;23.35;17.05;;;;;;;35.19;61.59;97767.91;4904705;29;20063;-72
2022/08/31 13:02:02;;;;;;;25.63;17.13;;;;;;;34.99;61.09;97767.53;4898144;29;20072;-71
2022/08/31 13:04:53;;;;;;;30.10;17.73;;;;;;;34.88;59.82;97773.91;4893549;29;20105;-72
2022/08/31 13:07:35;;;;;;;24.15;16.90;;;;;;;34.92;61.35;97767.53;4893670;29;20528;-72
2022/08/31 13:10:43;;;;;;;33.65;17.58;;;;;;;34.83;61.13;97771.50;4893062;29;20366;-72
2022/08/31 13:13:32;;;;;;;23.85;16.55;;;;;;;34.87;61.66;97777.09;4873546;29;20624;-69
2022/08/31 13:16:15;;;;;;;25.90;17.20;;;;;;;34.79;61.96;97773.50;4892050;29;20104;-72
2022/08/31 13:19:07;;;;;;;31.50;18.90;;;;;;;34.76;62.58;97777.13;4912088;29;20068;-74
2022/08/31 13:21:59;;;;;;;25.45;17.77;;;;;;;34.60;63.18;97762.75;4904607;29;20053;-72
2022/08/31 13:24:51;;;;;;;29.05;16.80;;;;;;;34.59;62.58;97767.53;4895919;29;20056;-72
2022/08/31 13:27:37;;;;;;;32.28;17.48;;;;;;;34.54;62.56;97775.47;4912935;29;20044;-74
2022/08/31 13:30:34;;;;;;;29.20;18.40;;;;;;;34.55;63.60;97765.91;4911256;29;20064;-72
2022/08/31 13:33:47;;;;;;;29.20;17.63;;;;;;;34.46;65.44;97771.91;4901890;29;20068;-70
2022/08/31 13:36:47;;;;;;;30.08;18.13;;;;;;;34.39;64.92;97783.03;4892786;29;20124;-73
2022/08/31 13:39:46;;;;;;;26.30;16.80;;;;;;;34.28;63.52;97778.25;4877165;29;20045;-72
2022/08/31 13:42:41;;;;;;;31.52;15.68;;;;;;;34.15;62.75;97788.13;4882701;29;20052;-68
2022/08/31 13:45:49;;;;;;;22.20;13.27;;;;;;;34.19;62.95;97788.16;4874575;29;20076;-70